createdAt,value
2024-02-08T06:01:32.112Z,50.00
2024-02-08T06:02:08.504Z,50.00
2024-02-08T06:03:08.480Z,50.00
2024-02-08T06:04:08.614Z,50.00
2024-02-08T06:05:08.556Z,50.00
2024-02-08T06:06:08.646Z,50.00
2024-02-08T06:07:08.909Z,36.77
2024-02-08T06:08:08.564Z,16.16
2024-02-08T06:09:08.460Z,5.06
2024-02-08T06:10:08.494Z,0.00
2024-02-08T06:11:08.484Z,0.00
2024-02-08T06:12:09.378Z,0.00
2024-02-08T06:13:08.485Z,0.00
2024-02-08T06:14:08.510Z,2.54
2024-02-08T06:15:08.507Z,8.99
2024-02-08T06:16:08.691Z,15.45
2024-02-08T06:17:08.486Z,24.89
2024-02-08T06:18:08.575Z,34.33
2024-02-08T06:19:08.561Z,48.93
2024-02-08T06:20:08.556Z,50.00
2024-02-08T06:21:08.507Z,49.87
2024-02-08T06:22:08.513Z,50.02
2024-02-08T06:23:08.488Z,50.00
2024-02-08T06:24:08.486Z,50.00
2024-02-08T06:25:08.580Z,48.66
2024-02-08T06:26:08.543Z,50.00
2024-02-08T06:27:08.554Z,50.00
2024-02-08T06:28:08.634Z,50.00
2024-02-08T06:29:08.526Z,50.92
2024-02-08T06:30:08.536Z,50.47
2024-02-08T06:31:08.541Z,50.30
2024-02-08T06:32:08.533Z,53.12
2024-02-08T06:33:08.628Z,50.58
2024-02-08T06:34:08.671Z,52.16
2024-02-08T06:35:08.785Z,52.41
2024-02-08T06:36:08.555Z,49.47
2024-02-08T06:37:08.557Z,52.74
2024-02-08T06:38:08.549Z,50.84
2024-02-08T06:39:08.562Z,50.10
2024-02-08T06:40:08.555Z,51.26
2024-02-08T06:41:08.534Z,51.15
2024-02-08T06:42:08.638Z,51.95
2024-02-08T06:43:08.601Z,51.01
2024-02-08T06:44:08.610Z,52.47
2024-02-08T06:45:08.623Z,50.77
2024-02-08T06:46:08.743Z,52.20
2024-02-08T06:47:08.767Z,51.03
2024-02-08T06:48:08.851Z,50.24
2024-02-08T06:49:08.946Z,52.96
2024-02-08T06:50:09.029Z,53.44
2024-02-08T06:51:08.985Z,51.84
2024-02-08T06:52:09.077Z,51.35
2024-02-08T06:53:09.102Z,50.00
2024-02-08T06:54:09.114Z,52.94
2024-02-08T06:55:09.204Z,52.64
2024-02-08T06:56:09.257Z,52.87
2024-02-08T06:57:09.261Z,50.00
2024-02-08T06:58:09.352Z,50.00
2024-02-08T06:59:09.374Z,51.12
2024-02-08T07:00:09.525Z,50.91
2024-02-08T07:01:09.615Z,51.44
2024-02-08T07:02:09.504Z,54.46
2024-02-08T07:03:09.597Z,52.59
2024-02-08T07:04:09.662Z,53.89
2024-02-08T07:05:12.928Z,51.09
2024-02-08T07:06:09.615Z,51.29
2024-02-08T07:07:09.685Z,52.18
2024-02-08T07:08:09.663Z,50.00
2024-02-08T07:09:09.597Z,51.65
2024-02-08T07:10:09.616Z,50.52
2024-02-08T07:11:09.608Z,51.29
2024-02-08T07:12:09.606Z,55.20
2024-02-08T07:13:09.661Z,55.35
2024-02-08T07:14:09.600Z,54.49
2024-02-08T07:15:09.593Z,54.24
2024-02-08T07:16:09.647Z,55.29
2024-02-08T07:17:09.587Z,55.11
2024-02-08T07:18:13.499Z,53.93
2024-02-08T07:19:09.807Z,54.07
2024-02-08T07:20:09.705Z,54.52
2024-02-08T07:21:09.612Z,55.79
2024-02-08T07:22:09.622Z,55.80
2024-02-08T07:23:09.613Z,57.35
2024-02-08T07:24:09.588Z,59.10
2024-02-08T07:25:09.677Z,60.12
2024-02-08T07:26:09.678Z,57.16
2024-02-08T07:27:09.624Z,57.28
2024-02-08T07:28:09.655Z,56.97
2024-02-08T07:29:09.641Z,57.29
2024-02-08T07:30:09.664Z,55.20
2024-02-08T07:31:09.649Z,55.96
2024-02-08T07:32:09.591Z,57.30
2024-02-08T07:33:09.725Z,55.01
2024-02-08T07:34:09.638Z,54.30
2024-02-08T07:35:09.725Z,55.63
2024-02-08T07:36:09.628Z,55.79
2024-02-08T07:37:09.633Z,55.28
2024-02-08T07:38:09.712Z,57.16
2024-02-08T07:39:09.606Z,55.72
2024-02-08T07:40:09.655Z,58.52
2024-02-08T07:41:09.638Z,57.11
2024-02-08T07:42:09.636Z,59.76
2024-02-08T07:43:09.698Z,60.74
2024-02-08T07:44:09.608Z,62.33
2024-02-08T07:45:09.610Z,61.64
2024-02-08T07:46:09.654Z,62.95
2024-02-08T07:47:09.700Z,62.71
2024-02-08T07:48:09.842Z,62.02
2024-02-08T07:49:09.717Z,60.99
2024-02-08T07:50:09.888Z,62.27
2024-02-08T07:51:09.703Z,62.03
2024-02-08T07:52:09.678Z,61.14
2024-02-08T07:53:09.671Z,61.81
2024-02-08T07:54:09.666Z,59.71
2024-02-08T07:55:09.741Z,60.40
2024-02-08T07:56:09.676Z,61.30
2024-02-08T07:57:09.670Z,60.27
2024-02-08T07:58:10.107Z,59.41
2024-02-08T07:59:09.652Z,59.01
2024-02-08T08:00:32.210Z,61.20
2024-02-08T08:01:09.704Z,61.38
2024-02-08T08:02:09.734Z,61.85
2024-02-08T08:03:09.708Z,62.48
2024-02-08T08:04:09.788Z,62.04
2024-02-08T08:05:09.839Z,63.19
2024-02-08T08:06:09.698Z,64.29
2024-02-08T08:07:09.708Z,62.44
2024-02-08T08:08:09.736Z,62.44
2024-02-08T08:09:09.700Z,66.80
2024-02-08T08:10:10.300Z,67.95
2024-02-08T08:11:09.752Z,67.81
2024-02-08T08:12:09.662Z,68.96
2024-02-08T08:13:09.750Z,71.08
2024-02-08T08:14:09.863Z,69.19
2024-02-08T08:15:09.715Z,66.84
2024-02-08T08:16:09.713Z,67.45
2024-02-08T08:17:09.856Z,65.92
2024-02-08T08:18:09.745Z,66.80
2024-02-08T08:19:10.258Z,64.89
2024-02-08T08:20:09.793Z,62.48
2024-02-08T08:21:09.733Z,63.46
2024-02-08T08:22:09.813Z,63.67
2024-02-08T08:23:09.953Z,65.12
2024-02-08T08:24:09.846Z,66.39
2024-02-08T08:25:13.273Z,64.65
2024-02-08T08:26:09.920Z,64.75
2024-02-08T08:27:09.920Z,64.98
2024-02-08T08:28:10.023Z,65.36
2024-02-08T08:29:09.942Z,65.95
2024-02-08T08:30:09.909Z,66.75
2024-02-08T08:31:09.976Z,66.49
2024-02-08T08:32:09.912Z,65.67
2024-02-08T08:33:10.151Z,67.83
2024-02-08T08:34:09.921Z,69.13
2024-02-08T08:35:10.016Z,69.05
2024-02-08T08:36:09.925Z,67.73
2024-02-08T08:37:09.930Z,69.41
2024-02-08T08:38:09.955Z,68.34
2024-02-08T08:39:09.998Z,67.91
2024-02-08T08:40:10.195Z,67.95
2024-02-08T08:41:10.278Z,68.37
2024-02-08T08:42:10.059Z,69.11
2024-02-08T08:43:10.079Z,69.04
2024-02-08T08:44:10.218Z,69.79
2024-02-08T08:45:10.204Z,70.03
2024-02-08T08:46:10.192Z,69.43
2024-02-08T08:47:10.134Z,70.61
2024-02-08T08:48:10.303Z,72.28
2024-02-08T08:49:10.360Z,70.68
2024-02-08T08:50:10.435Z,75.13
2024-02-08T08:51:10.303Z,75.98
2024-02-08T08:52:10.445Z,74.31
2024-02-08T08:53:10.497Z,76.63
2024-02-08T08:54:10.435Z,77.07
2024-02-08T08:55:10.701Z,76.28
2024-02-08T08:56:10.585Z,76.99
2024-02-08T08:57:10.698Z,76.11
2024-02-08T08:58:10.794Z,77.34
2024-02-08T08:59:10.780Z,76.20
2024-02-08T09:00:10.950Z,73.94
2024-02-08T09:01:11.004Z,74.49
2024-02-08T09:02:11.075Z,73.18
2024-02-08T09:03:10.860Z,77.03
2024-02-08T09:04:11.196Z,77.07
2024-02-08T09:05:11.096Z,72.67
2024-02-08T09:06:11.018Z,72.24
2024-02-08T09:07:11.156Z,69.45
2024-02-08T09:08:11.616Z,70.95
2024-02-08T09:09:11.101Z,71.68
2024-02-08T09:10:11.204Z,70.15
2024-02-08T09:11:11.282Z,65.38
2024-02-08T09:12:11.329Z,62.24
2024-02-08T09:13:11.462Z,63.06
2024-02-08T09:14:11.794Z,61.10
2024-02-08T09:15:11.500Z,62.37
2024-02-08T09:16:11.490Z,64.38
2024-02-08T09:17:24.515Z,64.20
2024-02-08T09:18:12.620Z,62.13
2024-02-08T09:19:11.604Z,63.12
2024-02-08T09:20:11.585Z,60.02
2024-02-08T09:21:11.496Z,61.33
2024-02-08T09:22:11.556Z,63.30
2024-02-08T09:23:11.513Z,61.68
2024-02-08T09:24:11.481Z,65.97
2024-02-08T09:25:22.478Z,67.90
2024-02-08T09:26:12.518Z,67.95
2024-02-08T09:27:11.547Z,68.08
2024-02-08T09:28:11.585Z,69.08
2024-02-08T09:29:11.551Z,70.10
2024-02-08T09:30:11.573Z,70.45
2024-02-08T09:31:11.585Z,73.42
2024-02-08T09:32:11.679Z,71.02
2024-02-08T09:33:11.541Z,71.07
2024-02-08T09:34:11.664Z,73.62
2024-02-08T09:35:11.697Z,72.10
2024-02-08T09:36:11.589Z,74.23
2024-02-08T09:37:11.894Z,73.89
2024-02-08T09:38:11.614Z,72.56
2024-02-08T09:39:11.659Z,73.34
2024-02-08T09:40:11.780Z,72.16
2024-02-08T09:41:11.733Z,73.70
2024-02-08T09:42:11.709Z,72.28
2024-02-08T09:43:19.488Z,50.00
2024-02-08T09:44:19.025Z,50.00
2024-02-08T09:45:19.136Z,50.00
2024-02-08T09:46:19.220Z,50.00
2024-02-08T09:47:19.112Z,50.00
2024-02-08T09:48:19.130Z,51.46
2024-02-08T09:49:19.737Z,53.92
2024-02-08T09:50:19.144Z,50.00
2024-02-08T09:51:19.101Z,51.76
2024-02-08T09:52:19.159Z,53.08
2024-02-08T09:53:41.626Z,50.00
2024-02-08T09:54:41.600Z,50.24
2024-02-08T09:55:19.120Z,50.36
2024-02-08T09:56:42.618Z,51.47
2024-02-08T09:57:19.256Z,50.38
2024-02-08T09:58:19.290Z,52.02
2024-02-08T09:59:19.360Z,53.93
2024-02-08T10:00:19.396Z,56.86
2024-02-08T10:01:19.486Z,59.48
2024-02-08T10:02:19.429Z,59.85
2024-02-08T10:03:19.418Z,57.08
2024-02-08T10:04:19.929Z,57.07
2024-02-08T10:05:19.572Z,57.60
2024-02-08T10:06:19.640Z,56.76
2024-02-08T10:07:19.765Z,56.72
2024-02-08T10:08:19.697Z,59.12
2024-02-08T10:09:19.808Z,57.60
2024-02-08T10:10:19.889Z,55.74
2024-02-08T10:11:19.885Z,55.95
2024-02-08T10:12:20.342Z,57.88
2024-02-08T10:13:20.071Z,58.58
2024-02-08T10:14:20.050Z,61.47
2024-02-08T10:15:20.083Z,60.94
2024-02-08T10:16:20.244Z,61.44
2024-02-08T10:17:20.196Z,61.52
2024-02-08T10:18:20.318Z,66.18
2024-02-08T10:19:20.379Z,65.30
2024-02-08T10:20:20.417Z,67.01
2024-02-08T10:21:20.345Z,67.72
2024-02-08T10:22:20.441Z,71.01
2024-02-08T10:23:20.479Z,69.75
2024-02-08T10:24:20.483Z,72.30
2024-02-08T10:25:20.650Z,73.02
2024-02-08T10:26:20.620Z,75.15
2024-02-08T10:27:20.625Z,77.71
2024-02-08T10:28:20.720Z,78.85
2024-02-08T10:29:20.735Z,93.43
2024-02-08T10:30:20.773Z,101.84
2024-02-08T10:31:20.830Z,110.34
2024-02-08T10:32:20.894Z,113.21
2024-02-08T10:33:21.003Z,115.08
2024-02-08T10:34:21.122Z,107.11
2024-02-08T10:35:21.211Z,104.05
2024-02-08T10:36:23.360Z,97.86
2024-02-08T10:37:21.172Z,91.29
2024-02-08T10:38:21.076Z,84.60
2024-02-08T10:39:21.126Z,82.09
2024-02-08T10:40:21.104Z,74.31
2024-02-08T10:41:21.134Z,62.36
2024-02-08T10:42:22.362Z,61.79
2024-02-08T10:43:21.205Z,57.38
2024-02-08T10:44:21.109Z,55.29
2024-02-08T10:45:21.142Z,53.86
2024-02-08T10:46:21.207Z,55.91
2024-02-08T10:47:28.945Z,59.16
2024-02-08T10:48:22.254Z,59.22
2024-02-08T10:49:21.268Z,59.19
2024-02-08T10:50:22.283Z,60.93
2024-02-08T10:51:21.254Z,63.33
2024-02-08T10:52:22.708Z,63.78
2024-02-08T10:53:21.230Z,62.25
2024-02-08T10:54:21.433Z,62.01
2024-02-08T10:55:21.311Z,60.88
2024-02-08T10:56:21.248Z,62.19
2024-02-08T10:57:21.257Z,59.38
2024-02-08T10:58:21.280Z,62.57
2024-02-08T10:59:21.240Z,60.47
2024-02-08T11:00:21.233Z,57.61
2024-02-08T11:01:21.442Z,59.40
2024-02-08T11:02:21.275Z,59.60
2024-02-08T11:03:21.363Z,59.88
2024-02-08T11:04:21.488Z,61.91
2024-02-08T11:05:21.503Z,61.80
2024-02-08T11:06:21.583Z,63.57
2024-02-08T11:07:21.634Z,62.26
2024-02-08T11:08:21.639Z,60.78
2024-02-08T11:09:21.702Z,61.63
2024-02-08T11:10:22.229Z,61.88
2024-02-08T11:11:21.862Z,62.01
2024-02-08T11:12:21.901Z,61.21
2024-02-08T11:13:21.983Z,59.68
2024-02-08T11:14:22.052Z,60.87
2024-02-08T11:15:22.065Z,62.17
2024-02-08T11:16:22.786Z,64.32
2024-02-08T11:17:22.458Z,62.11
2024-02-08T11:18:22.257Z,64.71
2024-02-08T11:19:22.377Z,65.24
2024-02-08T11:20:22.453Z,66.00
2024-02-08T11:21:22.444Z,64.59
2024-02-08T11:22:22.494Z,64.51
2024-02-08T11:23:22.472Z,63.75
2024-02-08T11:24:24.524Z,65.57
2024-02-08T11:25:22.583Z,64.92
2024-02-08T11:26:22.637Z,66.42
2024-02-08T11:27:22.685Z,69.50
2024-02-08T11:28:26.911Z,69.44
2024-02-08T11:29:22.714Z,66.60
2024-02-08T11:30:22.731Z,62.01
2024-02-08T11:31:22.750Z,54.49
2024-02-08T11:32:22.720Z,51.97
2024-02-08T11:33:22.725Z,45.73
2024-02-08T11:34:22.883Z,50.00
2024-02-08T11:35:22.900Z,51.71
2024-02-08T11:36:22.759Z,50.00
2024-02-08T11:37:22.769Z,52.11
2024-02-08T11:38:22.754Z,52.02
2024-02-08T11:39:22.747Z,50.00
2024-02-08T11:40:22.764Z,50.03
2024-02-08T11:41:22.742Z,50.05
2024-02-08T11:42:22.753Z,50.78
2024-02-08T11:43:22.807Z,50.35
2024-02-08T11:44:22.825Z,50.73
2024-02-08T11:45:22.853Z,50.00
2024-02-08T11:46:23.038Z,50.49
2024-02-08T11:47:23.017Z,51.62
2024-02-08T11:48:23.194Z,51.61
2024-02-08T11:49:23.221Z,55.31
2024-02-08T11:50:23.157Z,56.90
2024-02-08T11:51:23.293Z,56.42
2024-02-08T11:52:23.340Z,59.63
2024-02-08T11:53:23.316Z,61.84
2024-02-08T11:54:23.392Z,64.22
2024-02-08T11:55:23.525Z,65.36
2024-02-08T11:56:23.436Z,67.36
2024-02-08T11:57:23.483Z,70.12
2024-02-08T11:58:23.614Z,69.81
2024-02-08T11:59:23.603Z,69.12
2024-02-08T12:00:23.644Z,66.16
2024-02-08T12:01:23.764Z,66.46
2024-02-08T12:02:23.766Z,68.86
2024-02-08T12:03:23.796Z,73.03
2024-02-08T12:04:23.918Z,76.17
2024-02-08T12:05:23.966Z,78.37
2024-02-08T12:06:24.325Z,76.49
2024-02-08T12:07:24.018Z,76.63
2024-02-08T12:08:31.029Z,75.99
2024-02-08T12:09:24.957Z,76.13
2024-02-08T12:10:23.999Z,79.13
2024-02-08T12:11:23.981Z,84.03
2024-02-08T12:12:23.943Z,90.87
2024-02-08T12:13:24.029Z,100.88
2024-02-08T12:14:27.114Z,104.02
2024-02-08T12:15:23.990Z,103.26
2024-02-08T12:16:24.038Z,104.63
2024-02-08T12:17:24.069Z,108.68
2024-02-08T12:18:23.967Z,110.63
2024-02-08T12:19:24.073Z,111.23
2024-02-08T12:20:23.976Z,109.90
2024-02-08T12:21:23.973Z,114.92
2024-02-08T12:22:24.026Z,115.17
2024-02-08T12:23:23.979Z,123.09
2024-02-08T12:24:23.970Z,131.66
2024-02-08T12:25:24.018Z,129.36
2024-02-08T12:26:23.952Z,125.17
2024-02-08T12:27:23.991Z,125.18
2024-02-08T12:28:23.999Z,120.67
2024-02-08T12:29:23.958Z,119.39
2024-02-08T12:30:24.011Z,115.66
2024-02-08T12:31:24.034Z,114.20
2024-02-08T12:32:24.042Z,114.89
2024-02-08T12:33:24.060Z,116.13
2024-02-08T12:34:24.025Z,121.59
2024-02-08T12:35:24.002Z,130.21
2024-02-08T12:36:24.011Z,136.41
2024-02-08T12:37:24.137Z,132.89
2024-02-08T12:38:23.978Z,127.92
2024-02-08T12:39:23.985Z,128.18
2024-02-08T12:40:24.115Z,124.05
2024-02-08T12:41:24.013Z,118.95
2024-02-08T12:42:24.014Z,117.74
2024-02-08T12:43:24.029Z,115.05
2024-02-08T12:44:23.989Z,115.34
2024-02-08T12:45:23.983Z,113.01
2024-02-08T12:46:24.079Z,114.48
2024-02-08T12:47:24.001Z,113.82
2024-02-08T12:48:24.270Z,113.56
2024-02-08T12:49:24.364Z,113.05
2024-02-08T12:50:27.088Z,114.84
2024-02-08T12:51:24.376Z,114.94
2024-02-08T12:52:24.447Z,112.86
2024-02-08T12:53:24.238Z,110.13
2024-02-08T12:54:24.216Z,110.83
2024-02-08T12:55:24.471Z,109.87
2024-02-08T12:56:24.245Z,108.60
2024-02-08T12:57:24.234Z,112.22
2024-02-08T12:58:24.258Z,111.79
2024-02-08T12:59:24.225Z,112.64
2024-02-08T13:00:24.249Z,112.38
2024-02-08T13:01:24.264Z,111.48
2024-02-08T13:02:24.312Z,110.78
2024-02-08T13:03:24.241Z,112.41
2024-02-08T13:04:24.392Z,113.02
2024-02-08T13:05:24.313Z,113.27
2024-02-08T13:06:24.418Z,109.63
2024-02-08T13:07:24.433Z,109.46
2024-02-08T13:08:24.613Z,107.09
2024-02-08T13:09:24.535Z,104.40
2024-02-08T13:10:24.593Z,100.05
2024-02-08T13:11:24.634Z,101.90
2024-02-08T13:12:24.673Z,97.98
2024-02-08T13:13:24.897Z,99.19
2024-02-08T13:14:24.728Z,98.35
2024-02-08T13:15:24.815Z,93.90
2024-02-08T13:16:24.881Z,95.23
2024-02-08T13:17:25.036Z,93.47
2024-02-08T13:18:24.911Z,94.68
2024-02-08T13:19:25.047Z,93.33
2024-02-08T13:20:25.383Z,92.78
2024-02-08T13:21:25.118Z,92.75
2024-02-08T13:22:25.219Z,94.56
2024-02-08T13:23:25.208Z,92.85
2024-02-08T13:24:25.295Z,94.14
2024-02-08T13:25:25.381Z,92.45
2024-02-08T13:26:30.391Z,96.85
2024-02-08T13:27:26.515Z,95.93
2024-02-08T13:28:25.460Z,95.35
2024-02-08T13:29:25.360Z,94.39
2024-02-08T13:30:25.407Z,93.35
2024-02-08T13:31:25.456Z,92.44
2024-02-08T13:32:25.362Z,93.35
2024-02-08T13:33:25.474Z,89.11
2024-02-08T13:34:28.968Z,89.69
2024-02-08T13:35:25.702Z,86.86
2024-02-08T13:36:25.394Z,88.10
2024-02-08T13:37:25.498Z,85.31
2024-02-08T13:38:25.390Z,86.14
2024-02-08T13:39:25.379Z,85.62
2024-02-08T13:40:25.519Z,88.05
2024-02-08T13:41:49.324Z,83.94
2024-02-08T13:43:53.942Z,83.94
2024-02-08T13:44:52.942Z,84.63
2024-02-08T13:45:33.813Z,84.71
2024-02-08T13:46:52.976Z,85.19
2024-02-08T13:47:30.480Z,84.57
2024-02-08T13:48:30.626Z,87.01
2024-02-08T13:49:30.491Z,90.25
2024-02-08T13:50:32.512Z,94.62
2024-02-08T13:51:30.346Z,84.45
2024-02-08T13:52:31.211Z,85.40
2024-02-08T13:53:30.313Z,87.26
2024-02-08T13:54:30.334Z,89.33
2024-02-08T13:55:42.386Z,88.80
2024-02-08T13:56:31.332Z,84.12
2024-02-08T13:57:30.354Z,84.24
2024-02-08T13:58:30.463Z,80.83
2024-02-08T13:59:30.367Z,82.54
2024-02-08T14:00:30.414Z,80.75
2024-02-08T14:01:30.418Z,79.38
2024-02-08T14:02:30.487Z,77.98
2024-02-08T14:03:31.194Z,79.15
2024-02-08T14:04:30.360Z,76.57
2024-02-08T14:05:30.437Z,77.61
2024-02-08T14:06:30.496Z,75.48
2024-02-08T14:07:30.437Z,75.67
2024-02-08T14:08:30.389Z,74.82
2024-02-08T14:09:30.365Z,75.67
2024-02-08T14:10:30.403Z,74.69
2024-02-08T14:11:30.352Z,75.52
2024-02-08T14:12:30.367Z,74.96
2024-02-08T14:13:31.570Z,74.82
2024-02-08T14:14:30.365Z,74.96
2024-02-08T14:15:30.374Z,69.83
2024-02-08T14:16:30.389Z,70.37
2024-02-08T14:17:30.380Z,71.10
2024-02-08T14:18:32.591Z,70.43
2024-02-08T14:19:30.491Z,69.02
2024-02-08T14:20:30.423Z,68.48
2024-02-08T14:21:30.461Z,67.84
2024-02-08T14:22:30.465Z,65.50
2024-02-08T14:23:30.414Z,66.83
2024-02-08T14:24:30.446Z,65.63
2024-02-08T14:25:30.480Z,66.79
2024-02-08T14:26:30.418Z,67.02
2024-02-08T14:27:30.459Z,64.15
2024-02-08T14:28:30.597Z,64.99
2024-02-08T14:29:30.469Z,66.79
2024-02-08T14:30:30.447Z,67.61
2024-02-08T14:31:30.514Z,67.91
2024-02-08T14:32:36.072Z,68.94
2024-02-08T14:33:31.472Z,69.00
2024-02-08T14:34:30.604Z,68.50
2024-02-08T14:35:30.485Z,69.01
2024-02-08T14:36:30.430Z,70.11
2024-02-08T14:37:30.545Z,73.31
2024-02-08T14:38:30.471Z,70.18
2024-02-08T14:39:31.670Z,70.69
2024-02-08T14:40:30.499Z,72.06
2024-02-08T14:41:30.452Z,70.15
2024-02-08T14:42:30.445Z,74.04
2024-02-08T14:43:30.532Z,73.02
2024-02-08T14:44:30.460Z,73.60
2024-02-08T14:45:30.454Z,73.55
2024-02-08T14:46:30.583Z,74.30
2024-02-08T14:47:30.517Z,74.37
2024-02-08T14:48:30.430Z,77.04
2024-02-08T14:49:31.100Z,77.86
2024-02-08T14:50:30.486Z,76.44
2024-02-08T14:51:30.468Z,76.41
2024-02-08T14:52:30.526Z,78.46
2024-02-08T14:53:30.483Z,78.29
2024-02-08T14:54:30.505Z,77.80
2024-02-08T14:55:30.526Z,78.29
2024-02-08T14:56:30.479Z,74.83
2024-02-08T14:57:30.495Z,72.84
2024-02-08T14:58:30.566Z,74.37
2024-02-08T14:59:30.483Z,70.44
2024-02-08T15:00:30.505Z,68.45
2024-02-08T15:01:30.584Z,69.29
2024-02-08T15:02:30.705Z,68.79
2024-02-08T15:03:30.544Z,69.77
2024-02-08T15:04:30.512Z,70.95
2024-02-08T15:05:30.551Z,72.72
2024-02-08T15:06:30.540Z,71.15
2024-02-08T15:07:30.557Z,74.23
2024-02-08T15:08:30.556Z,76.17
2024-02-08T15:09:30.598Z,77.21
2024-02-08T15:10:30.649Z,78.61
2024-02-08T15:11:30.640Z,80.48
2024-02-08T15:12:30.723Z,80.58
2024-02-08T15:13:30.739Z,83.25
2024-02-08T15:14:30.781Z,84.49
2024-02-08T15:15:31.993Z,85.46
2024-02-08T15:16:30.932Z,86.80
2024-02-08T15:17:30.952Z,86.56
2024-02-08T15:18:30.992Z,89.79
2024-02-08T15:19:31.070Z,89.81
2024-02-08T15:20:31.075Z,94.50
2024-02-08T15:21:31.145Z,97.52
2024-02-08T15:22:31.283Z,101.62
2024-02-08T15:23:31.212Z,103.14
2024-02-08T15:24:31.270Z,107.32
2024-02-08T15:25:31.407Z,106.63
2024-02-08T15:26:31.384Z,108.48
2024-02-08T15:27:31.421Z,109.77
2024-02-08T15:28:31.540Z,111.28
2024-02-08T15:29:31.644Z,111.91
2024-02-08T15:30:31.623Z,112.56
2024-02-08T15:31:31.703Z,112.77
2024-02-08T15:32:32.141Z,114.27
2024-02-08T15:33:31.805Z,115.15
2024-02-08T15:34:31.875Z,115.25
2024-02-08T15:38:04.198Z,114.89
2024-02-08T15:39:04.266Z,116.09
2024-02-08T15:40:05.626Z,115.97
2024-02-08T15:41:04.239Z,115.81
2024-02-08T15:42:04.196Z,116.01
2024-02-08T15:42:41.690Z,116.00
2024-02-08T15:43:41.756Z,121.29
2024-02-08T15:44:41.688Z,128.19
2024-02-08T15:45:41.702Z,137.45
2024-02-08T15:46:41.717Z,146.98
2024-02-08T15:47:41.720Z,147.58
2024-02-08T15:48:41.805Z,146.20
2024-02-08T15:49:41.809Z,142.12
2024-02-08T15:50:41.683Z,140.61
2024-02-08T15:51:41.743Z,138.57
2024-02-08T15:52:41.727Z,137.23
2024-02-08T15:53:41.698Z,135.68
2024-02-08T15:54:41.724Z,133.77
2024-02-08T15:55:41.823Z,131.81
2024-02-08T15:56:41.701Z,130.93
2024-02-08T15:57:41.709Z,131.35
2024-02-08T15:58:41.729Z,129.66
2024-02-08T15:59:41.735Z,128.21
2024-02-08T16:00:41.746Z,127.30
2024-02-08T16:01:41.854Z,129.55
2024-02-08T16:02:41.770Z,129.56
2024-02-08T16:03:41.801Z,125.64
2024-02-08T16:04:41.831Z,125.02
2024-02-08T16:05:41.769Z,126.06
2024-02-08T16:06:42.012Z,125.25
2024-02-08T16:07:41.742Z,124.75
2024-02-08T16:08:41.753Z,125.44
2024-02-08T16:09:41.813Z,125.75
2024-02-08T16:10:41.847Z,123.59
2024-02-08T16:11:41.862Z,123.70
2024-02-08T16:12:41.860Z,124.23
2024-02-08T16:13:41.930Z,124.66
2024-02-08T16:14:41.961Z,123.92
2024-02-08T16:15:41.994Z,122.97
2024-02-08T16:16:42.085Z,122.42
2024-02-08T16:17:42.099Z,123.60
2024-02-08T16:18:42.210Z,122.13
2024-02-08T16:19:42.249Z,121.88
2024-02-08T16:20:42.597Z,123.53
2024-02-08T16:21:42.297Z,123.21
2024-02-08T16:22:42.307Z,122.63
2024-02-08T16:23:42.428Z,121.11
2024-02-08T16:24:42.561Z,120.76
2024-02-08T16:25:42.552Z,122.00
2024-02-08T16:26:42.601Z,121.61
2024-02-08T16:27:42.635Z,121.55
2024-02-08T16:28:42.720Z,120.00
2024-02-08T16:29:42.695Z,119.74
2024-02-08T16:30:42.801Z,121.12
2024-02-08T16:31:42.820Z,120.47
2024-02-08T16:32:43.064Z,120.32
2024-02-08T16:33:43.470Z,119.76
2024-02-08T16:34:43.072Z,121.24
2024-02-08T16:35:43.010Z,120.42
2024-02-08T16:36:43.048Z,119.13
2024-02-08T16:37:43.297Z,120.38
2024-02-08T16:38:43.124Z,119.52
2024-02-08T16:39:43.189Z,119.02
2024-02-08T16:40:43.290Z,118.53
2024-02-08T16:41:43.301Z,120.24
2024-02-08T16:42:43.365Z,118.96
2024-02-08T16:43:43.468Z,119.48
2024-02-08T16:44:43.661Z,118.21
2024-02-08T16:45:43.514Z,117.34
2024-02-08T16:46:43.570Z,118.22
2024-02-08T16:47:43.660Z,116.32
2024-02-08T16:48:43.630Z,117.34
2024-02-08T16:49:43.947Z,115.52
2024-02-08T16:50:44.774Z,116.38
2024-02-08T16:51:43.837Z,117.30
2024-02-08T16:52:44.098Z,117.71
2024-02-08T16:53:43.976Z,117.39
2024-02-08T16:54:44.032Z,117.57
2024-02-08T16:55:44.142Z,116.38
2024-02-08T16:56:44.103Z,116.47
2024-02-08T16:57:44.247Z,115.87
2024-02-08T16:58:44.208Z,116.34
2024-02-08T16:59:44.290Z,115.96
2024-02-08T17:00:44.342Z,116.47
2024-02-08T17:01:44.529Z,115.17
2024-02-08T17:02:44.508Z,115.38
2024-02-08T17:03:44.523Z,116.67
2024-02-08T17:04:44.771Z,115.38
2024-02-08T17:05:44.738Z,118.01
2024-02-08T17:06:45.004Z,116.93
2024-02-08T17:07:44.921Z,115.69
2024-02-08T17:08:44.797Z,115.91
2024-02-08T17:09:44.958Z,114.43
2024-02-08T17:10:45.029Z,115.02
2024-02-08T17:11:44.965Z,116.42
2024-02-08T17:12:45.055Z,113.59
2024-02-08T17:13:46.681Z,114.66
2024-02-08T17:14:45.130Z,115.66
2024-02-08T17:15:45.161Z,113.83
2024-02-08T17:16:45.320Z,114.90
2024-02-08T17:17:45.293Z,113.87
2024-02-08T17:18:45.498Z,114.23
2024-02-08T17:19:45.399Z,114.43
2024-02-08T17:20:45.458Z,114.52
2024-02-08T17:21:45.499Z,113.67
2024-02-08T17:22:45.606Z,112.86
2024-02-08T17:23:45.563Z,112.76
2024-02-08T17:24:45.655Z,114.69
2024-02-08T17:25:45.701Z,113.98
2024-02-08T17:26:45.751Z,113.87
2024-02-08T17:27:45.773Z,114.00
2024-02-08T17:28:45.802Z,112.16
2024-02-08T17:29:45.910Z,113.67
2024-02-08T17:31:09.670Z,115.75
2024-02-08T17:32:08.421Z,115.90
2024-02-08T17:32:45.963Z,116.06
2024-02-08T17:34:08.502Z,117.18
2024-02-08T17:35:08.551Z,116.09
2024-02-08T17:35:46.014Z,116.19
2024-02-08T17:36:46.072Z,117.86
2024-02-08T17:37:46.202Z,120.17
2024-02-08T17:38:46.115Z,122.07
2024-02-08T17:39:45.924Z,123.34
2024-02-08T17:40:45.966Z,123.73
2024-02-08T17:41:45.967Z,119.88
2024-02-08T17:42:45.932Z,119.78
2024-02-08T17:43:45.990Z,118.51
2024-02-08T17:44:45.945Z,118.07
2024-02-08T17:45:45.921Z,117.68
2024-02-08T17:46:45.975Z,114.60
2024-02-08T17:47:46.023Z,115.88
2024-02-08T17:48:46.013Z,114.95
2024-02-08T17:49:45.976Z,115.08
2024-02-08T17:50:45.934Z,113.77
2024-02-08T17:51:45.920Z,113.77
2024-02-08T17:52:46.678Z,113.85
2024-02-08T17:53:46.473Z,113.23
2024-02-08T17:54:46.583Z,113.11
2024-02-08T17:55:46.076Z,112.82
2024-02-08T17:56:46.058Z,111.43
2024-02-08T17:57:46.127Z,112.71
2024-02-08T17:58:46.178Z,111.99
2024-02-08T17:59:46.188Z,111.54
2024-02-08T18:00:46.273Z,111.02
